»·PEaware :: EAL235 KTUS-KONT

EAL235 :: KTUS-KONT

FLIGHT INFORMATION

Flight Status: Arrived
Operator:
Eastern Air Lines
More flights by this operator :: More flights under this callsign
Pilot: Dave P. (45)
Aircraft: BOEING 737-800
(B738)
More flights by this aircraft type
Origin: KTUS Tucson Intl
United States
Destination: KONT Ontario Intl
United States
More flights between these airports :: More routes between these airports
Route: +BURRO4 GBN CULTS HRRBR HEYNG JCKIE2
File this flight plan on PilotEdge
Remarks: callsign is "EASTERN"
Altitude:
(Current/Filed)
32,000ft
Speed:
(Current/Filed)
459kts
Departed: 20-Nov-20 09:39 AM
Arrived: 20-Nov-20 10:42 AM
Distance/Time
Traveled:
354nm/1:02
Distance/Time
To Go:
Arrived

Flight Plot

Page will automatically refresh every two minutes.

Flight plan parsing failed; only flown route is shown


Map Options




Map Legend


Flown Route
Filed Route
Departure Airport
Arrival Airport
Navaid (VOR, NDB)
Fix

Horizontal Profiles

Position Reports

Time Latitude Longitude Heading Altitude Ground
Speed
20-Nov-20 09:15 32.118371 -110.936086 258 2651ft 0kts
20-Nov-20 09:16 32.118371 -110.936086 258 2651ft 0kts
20-Nov-20 09:17 32.118371 -110.936086 258 2651ft 0kts
20-Nov-20 09:19 32.118371 -110.936086 258 2651ft 0kts
20-Nov-20 09:20 32.118371 -110.936086 258 2651ft 0kts
20-Nov-20 09:21 32.118371 -110.936086 258 2651ft 0kts
20-Nov-20 09:22 32.118371 -110.936086 258 2651ft 0kts
20-Nov-20 09:23 32.118371 -110.936086 258 2651ft 0kts
20-Nov-20 09:24 32.118371 -110.936086 258 2651ft 0kts
20-Nov-20 09:25 32.118371 -110.936086 258 2651ft 0kts
20-Nov-20 09:26 32.118371 -110.936086 258 2651ft 0kts
20-Nov-20 09:27 32.118419 -110.935797 258 2651ft 2kts
20-Nov-20 09:28 32.118505 -110.935279 258 2651ft 0kts
20-Nov-20 09:29 32.118505 -110.935279 258 2651ft 0kts
20-Nov-20 09:30 32.118505 -110.935279 258 2651ft 0kts
20-Nov-20 09:31 32.117992 -110.934908 138 2651ft 9kts
20-Nov-20 09:32 32.116152 -110.935495 236 2651ft 6kts
20-Nov-20 09:33 32.116211 -110.937867 304 2651ft 10kts
20-Nov-20 09:34 32.120058 -110.942439 315 2651ft 19kts
20-Nov-20 09:35 32.123626 -110.946616 315 2651ft 16kts
20-Nov-20 09:36 32.124307 -110.947930 227 2651ft 0kts
20-Nov-20 09:37 32.124306 -110.947931 227 2651ft 0kts
20-Nov-20 09:37 32.122955 -110.947440 135 2651ft 17kts
20-Nov-20 09:38 32.099550 -110.920176 136 3531ft 169kts
20-Nov-20 09:39 32.060951 -110.875295 141 5299ft 239kts
20-Nov-20 09:41 31.992243 -110.908256 242 8105ft 283kts
20-Nov-20 09:41 31.965551 -110.977756 275 10579ft 291kts
20-Nov-20 09:43 32.023797 -111.081670 297 12353ft 364kts
20-Nov-20 09:43 32.065822 -111.169775 298 14573ft 375kts
20-Nov-20 09:44 32.132820 -111.267112 310 17162ft 389kts
20-Nov-20 09:45 32.206477 -111.362972 309 19480ft 398kts
20-Nov-20 09:46 32.281028 -111.461809 305 21560ft 406kts
20-Nov-20 09:47 32.344740 -111.572968 300 23196ft 414kts
20-Nov-20 09:48 32.408299 -111.686766 301 24038ft 415kts
20-Nov-20 09:49 32.472626 -111.801878 301 25630ft 422kts
20-Nov-20 09:50 32.538556 -111.918874 301 27066ft 429kts
20-Nov-20 09:51 32.604562 -112.037114 301 28714ft 427kts
20-Nov-20 09:52 32.669393 -112.153726 300 30556ft 420kts
20-Nov-20 09:53 32.733130 -112.268765 300 32169ft 416kts
20-Nov-20 09:54 32.796550 -112.383153 300 32224ft 411kts
20-Nov-20 09:55 32.859218 -112.496932 300 32219ft 410kts
20-Nov-20 09:56 32.921551 -112.610788 300 32216ft 410kts
20-Nov-20 09:57 32.982272 -112.725742 297 32217ft 409kts
20-Nov-20 09:58 33.038355 -112.843618 297 32216ft 408kts
20-Nov-20 09:59 33.094587 -112.960911 297 32215ft 408kts
20-Nov-20 10:00 33.151342 -113.078527 297 32214ft 409kts
20-Nov-20 10:01 33.208073 -113.196232 297 32212ft 408kts
20-Nov-20 10:02 33.264392 -113.313914 296 32209ft 408kts
20-Nov-20 10:03 33.320688 -113.432009 296 32204ft 408kts
20-Nov-20 10:04 33.376582 -113.549661 296 32199ft 407kts
20-Nov-20 10:05 33.432472 -113.667689 296 32194ft 406kts
20-Nov-20 10:06 33.488003 -113.785308 296 32185ft 403kts
20-Nov-20 10:07 33.542965 -113.901589 296 32182ft 401kts
20-Nov-20 10:08 33.597472 -114.018241 295 32183ft 400kts
20-Nov-20 10:09 33.644074 -114.138528 280 32192ft 395kts
20-Nov-20 10:10 33.660073 -114.269273 276 32183ft 395kts
20-Nov-20 10:11 33.673007 -114.400364 276 32174ft 395kts
20-Nov-20 10:12 33.685677 -114.531715 276 32166ft 396kts
20-Nov-20 10:13 33.698835 -114.663185 276 32162ft 396kts
20-Nov-20 10:14 33.711501 -114.794831 276 32162ft 396kts
20-Nov-20 10:15 33.724153 -114.926361 275 32168ft 396kts
20-Nov-20 10:16 33.736229 -115.057823 275 32177ft 395kts
20-Nov-20 10:17 33.748250 -115.188958 276 32191ft 395kts
20-Nov-20 10:18 33.761732 -115.319757 276 32206ft 394kts
20-Nov-20 10:19 33.774824 -115.448400 275 30661ft 379kts
20-Nov-20 10:20 33.787588 -115.572325 275 28689ft 368kts
20-Nov-20 10:21 33.799775 -115.693431 275 26996ft 367kts
20-Nov-20 10:22 33.812284 -115.815002 275 25356ft 362kts
20-Nov-20 10:23 33.824010 -115.934310 274 23745ft 356kts
20-Nov-20 10:24 33.835374 -116.051776 274 22157ft 350kts
20-Nov-20 10:25 33.846830 -116.167430 275 20589ft 350kts
20-Nov-20 10:26 33.858351 -116.281464 275 18912ft 339kts
20-Nov-20 10:27 33.870622 -116.394267 275 17070ft 342kts
20-Nov-20 10:28 33.888968 -116.504937 285 15425ft 335kts
20-Nov-20 10:29 33.916389 -116.611322 285 14004ft 331kts
20-Nov-20 10:30 33.942901 -116.717568 283 12666ft 328kts
20-Nov-20 10:31 33.946052 -116.825712 266 11669ft 328kts
20-Nov-20 10:32 33.942188 -116.935053 268 10666ft 324kts
20-Nov-20 10:33 33.966860 -117.038517 294 9665ft 321kts
20-Nov-20 10:34 34.000310 -117.133763 287 8692ft 297kts
20-Nov-20 10:35 34.018146 -117.224419 282 8172ft 264kts
20-Nov-20 10:36 34.034393 -117.310399 282 6975ft 259kts
20-Nov-20 10:37 34.055705 -117.386060 283 5762ft 216kts
20-Nov-20 10:38 34.053543 -117.456692 269 3996ft 205kts
20-Nov-20 10:39 34.054985 -117.520746 269 2053ft 176kts
20-Nov-20 10:40 34.054950 -117.575475 271 1129ft 150kts
20-Nov-20 10:41 34.055342 -117.600652 47 952ft 6kts
20-Nov-20 10:42 34.057948 -117.599981 0 952ft 11kts
20-Nov-20 10:43 34.059257 -117.598277 89 952ft 13kts
20-Nov-20 10:44 34.060430 -117.597688 0 952ft 0kts
20-Nov-20 10:45 34.060430 -117.597688 0 952ft 0kts
20-Nov-20 10:46 34.060430 -117.597688 0 952ft 0kts
20-Nov-20 10:47 34.060430 -117.597688 0 952ft 0kts
20-Nov-20 10:48 34.060430 -117.597688 0 952ft 0kts
20-Nov-20 10:49 34.060430 -117.597688 0 952ft 0kts
20-Nov-20 10:50 34.060430 -117.597688 0 952ft 0kts

Navigation Log

Ident Type
Flight plan parsing failed, navigation log unavailable